Station: Badgingarra  

  Atmospheric Gas Attenuation - ITU Rec 676-11   ----------------- dB/100km -----------------
Date Time Temp RH % AH g/m3 Dew Point Wind Direction Speed kph Gust kph Barometer mB Rainfall Since 9am 24GHz 47GHz 76GHz 122GHz 134GHz 241GHz
04/09 10:50 16.6 65 9.18 10 20 32 1013.1 0 20.7 26.0 40.7 106.8 102.4 352.7
04/09 10:40 17.2 68 9.96 11.2 20 30 1013.1 0 22.3 27.1 43.5 114.3 111.8 385.7
04/09 10:30 16 66 8.99 9.7 26 35 1013.1 0 20.3 25.9 40.2 105.7 100.7 346.8
04/09 10:20 16 68 9.26 10.1 22 32 1013.1 0 20.9 26.3 41.3 108.5 104.2 359.1
04/09 10:10 16.1 67 9.18 10 26 37 1013.1 0 20.7 26.2 40.9 107.5 103.0 355.0
04/09 10:00 15.5 69 9.12 9.8 28 37 1013.1 0 20.6 26.2 41.0 107.7 103.0 354.9
04/09 09:50 15.6 73 9.71 10.8 26 43 1013.1 0 21.9 27.2 43.3 113.9 110.7 381.9
04/09 09:40 16.1 74 10.14 11.5 26 39 1013.1 0 22.8 27.7 44.8 117.9 115.8 399.6
04/09 09:30 15.3 77 10.06 11.3 26 35 1013.1 0 22.6 27.8 44.9 118.2 115.9 399.9
04/09 09:20 14.9 81 10.32 11.7 26 33 1013.1 0 23.2 28.4 46.3 121.7 120.1 414.5
04/09 09:10 15.3 79 10.32 11.7 24 35 1013.1 0 23.2 28.3 46.0 121.1 119.5 412.4
04/09 09:00 15.2 85 11.03 12.7 22 28 1013.1 0 24.7 29.5 49.1 129.3 129.5 447.5
04/09 08:50 14.8 84 10.64 12.1 20 32 1013.1 3.6 23.9 29.0 47.7 125.5 124.7 430.6
04/09 08:40 14.5 87 10.82 12.4 22 33 1013.1 3.6 24.3 29.4 48.6 128.0 127.7 441.1
04/09 08:30 14.1 88 10.68 12.1 20 30 1013.1 3.6 24.0 29.3 48.3 127.1 126.4 436.5
04/09 08:20 13.6 90 10.59 12 20 28 1013.1 3.6 23.9 29.3 48.2 126.9 126.0 434.8
04/09 08:10 13.4 91 10.58 12 22 30 1013.1 3.6 23.9 29.3 48.3 127.1 126.2 435.5
04/09 08:00 13.5 93 10.88 12.4 19 32 1013.1 3.6 24.5 29.8 49.5 130.4 130.3 449.9
04/09 07:50 13.1 92 10.5 11.8 17 20 1013.1 3.6 23.7 29.3 48.1 126.7 125.5 433.2
04/09 07:40 12.8 90 10.08 11.2 19 24 1013.1 3.6 22.8 28.7 46.5 122.3 120.0 414.0
04/09 07:30 12.5 88 9.68 10.6 19 28 1013.1 3.6 22.0 28.1 45.0 118.2 114.9 395.9
04/09 07:20 12 89 9.49 10.2 11 17 1013.1 3.6 21.6 27.9 44.4 116.8 113.0 389.2
04/09 07:10 11.6 90 9.36 10 11 13 1013.1 3.6 21.3 27.8 44.1 115.9 111.7 384.8
04/09 07:00 11.4 90 9.24 9.8 11 13 1013.1 3.6 21.1 27.7 43.7 114.9 110.3 379.9
04/09 06:50 11.4 89 9.14 9.7 13 17 1013.1 3.6 20.9 27.5 43.3 113.7 108.9 375.0
04/09 06:40 11.7 89 9.31 9.9 15 19 1013.1 3.6 21.2 27.7 43.8 115.2 110.9 381.9
04/09 06:30 11.8 89 9.37 10 15 19 1013.1 3.6 21.3 27.8 44.0 115.7 111.6 384.3
04/09 06:20 11.7 90 9.41 10.1 17 20 1013.1 3.6 21.4 27.9 44.3 116.3 112.3 386.8
04/09 06:10 11.7 90 9.41 10.1 17 20 1013.1 3.6 21.4 27.9 44.3 116.3 112.3 386.8
04/09 06:00 11.9 91 9.64 10.5 15 19 1013.1 3.6 21.9 28.2 45.1 118.7 115.2 397.0
04/09 05:50 12 92 9.81 10.7 17 20 1013.1 3.6 22.3 28.5 45.8 120.5 117.5 404.9
04/09 05:40 12.3 92 9.99 11 17 20 1013.1 3.6 22.7 28.7 46.4 122.1 119.5 412.2
04/09 05:30 12.8 93 10.42 11.7 15 22 1013.1 3.6 23.6 29.3 48.0 126.2 124.9 430.9
04/09 05:20 13 94 10.66 12.1 17 24 1013.1 3.6 24.1 29.6 48.9 128.7 128.0 441.8
04/09 05:10 13.1 95 10.84 12.3 19 24 1013.1 3.6 24.4 29.9 49.6 130.6 130.4 450.2
04/09 05:00 13.2 96 11.02 12.6 20 28 1013.1 3.6 24.8 30.2 50.3 132.6 132.8 458.7
04/09 04:50 13.3 96 11.09 12.7 20 30 1013.1 3.6 25.0 30.3 50.6 133.2 133.7 461.7
04/09 04:40 13.3 96 11.09 12.7 19 28 1013.1 3.6 25.0 30.3 50.6 133.2 133.7 461.7
04/09 04:30 13.3 96 11.09 12.7 13 19 1013.1 3.6 25.0 30.3 50.6 133.2 133.7 461.7
04/09 04:20 13.3 96 11.09 12.7 13 17 1013.1 3.4 25.0 30.3 50.6 133.2 133.7 461.7
04/09 04:10 13.3 96 11.09 12.7 15 20 1013.1 3.4 25.0 30.3 50.6 133.2 133.7 461.7
04/09 04:00 13.3 96 11.09 12.7 17 26 1013.1 3.4 25.0 30.3 50.6 133.2 133.7 461.7
04/09 03:50 13.2 96 11.02 12.6 15 20 1013.1 3.4 24.8 30.2 50.3 132.6 132.8 458.7
04/09 03:40 13.2 96 11.02 12.6 17 24 1013.1 3 24.8 30.2 50.3 132.6 132.8 458.7
04/09 03:30 13.4 96 11.16 12.8 19 28 1013.1 3 25.1 30.4 50.8 133.9 134.5 464.6
04/09 03:20 13.4 96 11.16 12.8 22 32 1013.1 3 25.1 30.4 50.8 133.9 134.5 464.6
04/09 03:10 13.4 96 11.16 12.8 11 17 1013.1 2.8 25.1 30.4 50.8 133.9 134.5 464.6
04/09 03:00 13.3 96 11.09 12.7 9 15 1013.1 1.8 25.0 30.3 50.6 133.2 133.7 461.7
04/09 02:50 13.1 96 10.96 12.5 9 13 1013.1 1.8 24.7 30.1 50.1 132.0 132.1 456.3
04/09 02:40 12.9 96 10.82 12.3 11 15 1013.1 1.8 24.4 29.9 49.7 130.7 130.4 450.4
04/09 02:30 12.9 96 10.82 12.3 13 19 1013.1 1.8 24.4 29.9 49.7 130.7 130.4 450.4
04/09 02:20 12.9 96 10.82 12.3 17 24 1013.1 1.8 24.4 29.9 49.7 130.7 130.4 450.4
04/09 02:10 12.7 96 10.69 12.1 15 24 1013.1 1.8 24.1 29.8 49.2 129.5 128.9 445.0
04/09 02:00 12.3 96 10.43 11.7 7 9 1013.1 1.6 23.6 29.5 48.3 127.2 125.8 434.2
04/09 01:50 12.2 96 10.36 11.6 7 9 1013.1 1.4 23.5 29.4 48.1 126.5 125.0 431.2
04/09 01:40 12.1 96 10.3 11.5 9 9 1013.1 1.2 23.3 29.3 47.9 126.0 124.3 428.8
04/09 01:30 12.2 96 10.36 11.6 7 11 1013.1 1.2 23.5 29.4 48.1 126.5 125.0 431.2
04/09 01:20 11.9 95 10.06 11.2 11 11 1013.1 1.2 22.8 28.9 46.9 123.5 121.2 417.9
04/09 01:10 11.9 95 10.06 11.2 7 7 1013.1 1.2 22.8 28.9 46.9 123.5 121.2 417.9
04/09 01:00 11.6 96 9.98 11 7 9 1013.1 1.2 22.7 28.9 46.8 123.0 120.5 415.5
04/09 00:50 11.7 96 10.04 11.1 7 9 1013.1 1.2 22.8 29.0 47.0 123.6 121.2 418.0
04/09 00:40 11.7 96 10.04 11.1 7 9 1013.1 1.2 22.8 29.0 47.0 123.6 121.2 418.0
04/09 00:30 11.9 96 10.17 11.3 7 9 1013.1 1.2 23.1 29.1 47.4 124.8 122.7 423.4
04/09 00:20 11.8 95 10 11.1 7 9 1013.1 1.2 22.7 28.9 46.7 123.0 120.5 415.4
04/09 00:10 11.8 96 10.11 11.2 6 7 1013.1 1.2 22.9 29.1 47.2 124.2 122.0 420.9
04/09 00:00 12.1 96 10.3 11.5 6 9 1013.1 1.2 23.3 29.3 47.9 126.0 124.3 428.8
03/09 23:50 12.2 95 10.25 11.5 7 9 1013.1 1.2 23.2 29.2 47.6 125.2 123.4 425.7
03/09 23:40 11.9 96 10.17 11.3 7 7 1013.1 1.2 23.1 29.1 47.4 124.8 122.7 423.4
03/09 23:30 12 96 10.23 11.4 7 13 1013.1 1.2 23.2 29.2 47.6 125.3 123.4 425.8
03/09 23:20 12.2 96 10.36 11.6 13 19 1013.1 1.2 23.5 29.4 48.1 126.5 125.0 431.2
03/09 23:10 12.6 97 10.73 12.1 13 19 1013.1 1.2 24.2 29.9 49.4 130.2 129.7 447.6
03/09 23:00 12.9 97 10.93 12.4 11 17 1013.1 1.2 24.6 30.1 50.1 132.0 132.0 456.0
03/09 22:50 12.7 97 10.8 12.2 7 11 1013.1 1.2 24.4 30.0 49.7 130.8 130.5 450.6
03/09 22:40 12.5 97 10.67 12 7 9 1013.1 1.2 24.1 29.8 49.2 129.6 129.0 445.1
03/09 22:30 12.7 97 10.8 12.2 7 11 1013.1 1.2 24.4 30.0 49.7 130.8 130.5 450.6
03/09 22:20 12.9 97 10.93 12.4 9 13 1013.1 1.2 24.6 30.1 50.1 132.0 132.0 456.0
03/09 22:10 12.8 97 10.87 12.3 9 13 1013.1 1.2 24.5 30.1 49.9 131.5 131.3 453.5
03/09 22:00 12.8 97 10.87 12.3 7 11 1013.1 1.2 24.5 30.1 49.9 131.5 131.3 453.5
03/09 21:50 12.7 96 10.69 12.1 6 7 1013.1 1.2 24.1 29.8 49.2 129.5 128.9 445.0
03/09 21:40 12.8 96 10.75 12.2 6 7 1013.1 1.2 24.3 29.8 49.4 130.1 129.6 447.4
03/09 21:30 12.9 96 10.82 12.3 7 11 1013.1 1.2 24.4 29.9 49.7 130.7 130.4 450.4
03/09 21:20 13 96 10.89 12.4 13 17 1013.1 1.2 24.6 30.0 49.9 131.4 131.3 453.3
03/09 21:10 13.3 96 11.09 12.7 13 20 1013.1 1.2 25.0 30.3 50.6 133.2 133.7 461.7
03/09 21:00 13.8 97 11.56 13.3 9 13 1013.1 1.2 25.9 30.9 52.3 137.9 139.6 482.5
03/09 20:50 13.8 96 11.44 13.2 9 13 1013.1 1 25.7 30.7 51.8 136.5 137.9 476.4
03/09 20:40 13.8 96 11.44 13.2 9 13 1013.1 1 25.7 30.7 51.8 136.5 137.9 476.4
03/09 20:30 13.8 96 11.44 13.2 11 15 1013.1 1 25.7 30.7 51.8 136.5 137.9 476.4
03/09 20:20 13.9 96 11.51 13.3 9 15 1013.1 1 25.8 30.8 52.1 137.1 138.7 479.3
03/09 20:10 13.9 96 11.51 13.3 9 15 1013.1 1 25.8 30.8 52.1 137.1 138.7 479.3
03/09 20:00 13.8 96 11.44 13.2 13 17 1013.1 1 25.7 30.7 51.8 136.5 137.9 476.4
03/09 19:50 13.8 96 11.44 13.2 11 15 1013.1 1 25.7 30.7 51.8 136.5 137.9 476.4
03/09 19:40 13.7 96 11.37 13.1 11 15 1013.1 1 25.5 30.6 51.6 135.8 137.0 473.5
03/09 19:30 13.6 96 11.3 13 11 15 1013.1 1 25.4 30.5 51.3 135.2 136.2 470.5
03/09 19:20 13.7 96 11.37 13.1 13 19 1013.1 1 25.5 30.6 51.6 135.8 137.0 473.5
03/09 19:10 13.6 96 11.3 13 11 17 1013.1 1 25.4 30.5 51.3 135.2 136.2 470.5
03/09 19:00 13.8 95 11.32 13 11 15 1013.1 1 25.4 30.5 51.3 135.1 136.1 470.3
03/09 18:50 13.7 95 11.25 12.9 11 17 1013.1 0.6 25.3 30.4 51.0 134.4 135.3 467.4
03/09 18:40 13.6 95 11.18 12.8 11 15 1013.1 0.4 25.1 30.3 50.8 133.8 134.4 464.4
03/09 18:30 13.6 95 11.18 12.8 11 15 1013.1 0.2 25.1 30.3 50.8 133.8 134.4 464.4
03/09 18:20 13.5 95 11.11 12.7 11 17 1013.1 0.2 25.0 30.2 50.5 133.1 133.6 461.5

Last Refresh: 04-Sep-2026 12:29:10

Bureau of Meteorology